createdAt,value
2019-04-10T00:00:41.157Z,97454.74
2019-04-10T00:02:41.910Z,97455.14
2019-04-10T00:04:43.539Z,97451.68
2019-04-10T00:06:45.861Z,97456.42
2019-04-10T00:08:46.858Z,97450.40
2019-04-10T00:10:48.471Z,97457.11
2019-04-10T00:12:50.073Z,97448.65
2019-04-10T00:14:52.535Z,97451.31
2019-04-10T00:16:54.262Z,97450.91
2019-04-10T00:18:56.036Z,97451.77
2019-04-10T00:20:56.840Z,97460.11
2019-04-10T00:22:58.379Z,97454.13
2019-04-10T00:25:00.182Z,97457.17
2019-04-10T00:27:02.087Z,97455.19
2019-04-10T00:29:03.629Z,97458.80
2019-04-10T00:31:05.312Z,97459.99
2019-04-10T00:33:06.720Z,97459.61
2019-04-10T00:35:08.350Z,97463.05
2019-04-10T00:37:21.267Z,97460.01
2019-04-10T00:39:12.566Z,97463.44
2019-04-10T00:41:14.186Z,97460.08
2019-04-10T00:43:14.955Z,97463.00
2019-04-10T00:45:17.497Z,97457.88
2019-04-10T00:47:19.121Z,97458.94
2019-04-10T00:49:19.904Z,97466.86
2019-04-10T00:51:21.505Z,97461.73
2019-04-10T00:53:23.275Z,97463.03
2019-04-10T00:55:25.789Z,97452.38
2019-04-10T00:57:27.445Z,97448.66
2019-04-10T00:59:28.240Z,97456.38
2019-04-10T01:01:29.871Z,97449.92
2019-04-10T01:03:38.147Z,97446.92
2019-04-10T01:05:39.639Z,97443.53
2019-04-10T01:07:43.166Z,97444.39
2019-04-10T01:09:42.235Z,97448.64
2019-04-10T01:11:43.897Z,97446.91
2019-04-10T01:13:45.538Z,97430.69
2019-04-10T01:15:47.137Z,97448.98
2019-04-10T01:17:48.789Z,97450.75
2019-04-10T01:19:50.376Z,97447.68
2019-04-10T01:21:52.753Z,97441.70
2019-04-10T01:23:53.622Z,97441.28
2019-04-10T01:25:55.241Z,97432.75
2019-04-10T01:27:56.867Z,97440.11
2019-04-10T01:29:58.483Z,97443.11
2019-04-10T01:32:00.101Z,97440.11
2019-04-10T01:34:01.725Z,97434.14
2019-04-10T01:36:03.334Z,97436.89
2019-04-10T01:38:06.432Z,97438.29
2019-04-10T01:40:06.688Z,97429.59
2019-04-10T01:42:08.307Z,97429.93
2019-04-10T01:44:11.045Z,97431.61
2019-04-10T01:46:11.515Z,97431.19
2019-04-10T01:48:13.130Z,97430.69
2019-04-10T01:50:14.724Z,97425.78
2019-04-10T01:52:17.207Z,97419.42
2019-04-10T01:54:17.985Z,97426.34
2019-04-10T01:56:25.045Z,97425.34
2019-04-10T01:58:21.250Z,97423.30
2019-04-10T02:00:23.693Z,97423.38
2019-04-10T02:02:25.402Z,97426.34
2019-04-10T02:04:26.867Z,97422.00
2019-04-10T02:06:29.390Z,97428.64
2019-04-10T02:08:30.164Z,97421.03
2019-04-10T02:10:32.093Z,97420.51
2019-04-10T02:12:33.420Z,97419.03
2019-04-10T02:14:35.025Z,97422.18
2019-04-10T02:16:36.609Z,97412.15
2019-04-10T02:18:38.202Z,97410.27
2019-04-10T02:20:39.975Z,97414.52
2019-04-10T02:22:41.588Z,97406.43
2019-04-10T02:24:43.144Z,97410.76
2019-04-10T02:26:45.656Z,97412.08
2019-04-10T02:28:47.011Z,97408.55
2019-04-10T02:30:48.100Z,97422.20
2019-04-10T02:32:50.792Z,97414.17
2019-04-10T02:34:52.984Z,97410.84
2019-04-10T02:36:53.095Z,97413.52
2019-04-10T02:39:08.511Z,97420.46
2019-04-10T02:40:57.524Z,97419.19
2019-04-10T02:42:59.030Z,97418.67
2019-04-10T02:44:59.762Z,97416.22
2019-04-10T02:47:02.090Z,97414.16
2019-04-10T02:49:04.048Z,97412.56
2019-04-10T02:51:05.511Z,97414.27
2019-04-10T02:53:07.833Z,97416.09
2019-04-10T02:55:09.847Z,97411.15
2019-04-10T02:57:09.683Z,97416.38
2019-04-10T02:59:11.361Z,97407.91
2019-04-10T03:01:13.502Z,97423.72
2019-04-10T03:03:15.867Z,97418.62
2019-04-10T03:05:17.653Z,97416.56
2019-04-10T03:07:17.937Z,97406.41
2019-04-10T03:09:37.082Z,97410.70
2019-04-10T03:11:22.214Z,97414.45
2019-04-10T03:13:23.914Z,97403.80
2019-04-10T03:15:25.217Z,97405.83
2019-04-10T03:17:26.244Z,97413.99
2019-04-10T03:19:27.870Z,97415.73
2019-04-10T03:21:29.465Z,97411.13
2019-04-10T03:23:31.624Z,97411.03
2019-04-10T03:25:33.033Z,97410.16
2019-04-10T03:27:34.505Z,97414.34
2019-04-10T03:29:36.103Z,97413.38
2019-04-10T03:31:39.190Z,97413.60
2019-04-10T03:33:47.109Z,97412.02
2019-04-10T03:35:45.227Z,97405.77
2019-04-10T03:37:46.718Z,97409.41
2019-04-10T03:39:48.967Z,97411.56
2019-04-10T03:41:50.534Z,97417.17
2019-04-10T03:43:52.223Z,97414.30
2019-04-10T03:45:53.275Z,97419.83
2019-04-10T03:47:55.763Z,97414.38
2019-04-10T03:49:56.569Z,97416.70
2019-04-10T03:51:58.184Z,97416.82
2019-04-10T03:53:59.814Z,97419.59
2019-04-10T03:56:01.416Z,97416.69
2019-04-10T03:58:03.031Z,97414.25
2019-04-10T04:00:05.657Z,97419.86
2019-04-10T04:04:15.374Z,97418.30
2019-04-10T04:06:16.000Z,97422.98
2019-04-10T04:08:17.593Z,97424.87
2019-04-10T04:10:20.399Z,97419.17
2019-04-10T04:12:20.852Z,97428.88
2019-04-10T04:14:22.463Z,97423.81
2019-04-10T04:16:24.715Z,97426.38
2019-04-10T04:18:26.858Z,97425.53
2019-04-10T04:20:27.421Z,97427.19
2019-04-10T04:22:29.037Z,97426.94
2019-04-10T04:24:31.528Z,97427.48
2019-04-10T04:26:32.267Z,97429.70
2019-04-10T04:28:34.246Z,97436.17
2019-04-10T04:30:36.028Z,97433.17
2019-04-10T04:32:37.950Z,97436.59
2019-04-10T04:34:38.929Z,97439.59
2019-04-10T04:36:40.884Z,97431.48
2019-04-10T04:38:43.168Z,97426.38
2019-04-10T04:40:44.229Z,97430.22
2019-04-10T04:42:45.533Z,97437.45
2019-04-10T04:44:47.763Z,97434.83
2019-04-10T04:46:48.853Z,97432.59
2019-04-10T04:48:50.464Z,97434.70
2019-04-10T04:50:52.292Z,97434.28
2019-04-10T04:52:53.792Z,97442.30
2019-04-10T04:54:55.413Z,97438.09
2019-04-10T04:56:58.035Z,97440.15
2019-04-10T04:58:59.451Z,97444.73
2019-04-10T05:01:00.360Z,97445.09
2019-04-10T05:03:01.963Z,97440.05
2019-04-10T05:05:04.473Z,97448.56
2019-04-10T05:07:06.245Z,97450.54
2019-04-10T05:09:06.980Z,97450.63
2019-04-10T05:11:09.762Z,97446.11
2019-04-10T05:13:10.339Z,97455.08
2019-04-10T05:15:12.868Z,97462.77
2019-04-10T05:17:15.607Z,97459.44
2019-04-10T05:19:15.259Z,97459.97
2019-04-10T05:21:17.113Z,97458.23
2019-04-10T05:23:18.512Z,97459.11
2019-04-10T05:25:21.068Z,97457.38
2019-04-10T05:27:22.586Z,97461.63
2019-04-10T05:29:23.491Z,97460.28
2019-04-10T05:31:25.583Z,97460.70
2019-04-10T05:33:26.859Z,97463.63
2019-04-10T05:35:28.453Z,97459.58
2019-04-10T05:37:30.045Z,97412.48
2019-04-10T05:39:40.542Z,97467.36
2019-04-10T05:41:33.598Z,97462.31
2019-04-10T05:43:36.025Z,97466.08
2019-04-10T05:45:38.005Z,97462.72
2019-04-10T05:47:39.144Z,97467.87
2019-04-10T05:49:41.467Z,97463.19
2019-04-10T05:51:43.598Z,97469.06
2019-04-10T05:53:44.908Z,97466.41
2019-04-10T05:55:45.841Z,97462.98
2019-04-10T05:57:47.462Z,97460.92
2019-04-10T05:59:49.097Z,97460.06
2019-04-10T06:01:50.686Z,97462.56
2019-04-10T06:03:53.174Z,97466.89
2019-04-10T06:05:56.330Z,97462.98
2019-04-10T06:07:57.250Z,97467.26
2019-04-10T06:10:03.135Z,97445.37
2019-04-10T06:12:00.150Z,97467.55
2019-04-10T06:14:01.721Z,97465.85
2019-04-10T06:16:03.546Z,97470.13
2019-04-10T06:18:05.045Z,97469.78
2019-04-10T06:20:07.126Z,97472.28
2019-04-10T06:22:09.797Z,97474.03
2019-04-10T06:24:10.002Z,97468.92
2019-04-10T06:26:12.638Z,97472.23
2019-04-10T06:28:13.250Z,97476.86
2019-04-10T06:30:15.440Z,97476.07
2019-04-10T06:32:17.048Z,97481.62
2019-04-10T06:34:18.795Z,97474.39
2019-04-10T06:36:19.856Z,97481.05
2019-04-10T06:38:21.472Z,97484.95
2019-04-10T06:40:25.803Z,97484.52
2019-04-10T06:42:24.889Z,97457.41
2019-04-10T06:44:26.502Z,97487.11
2019-04-10T06:46:28.747Z,97481.99
2019-04-10T06:48:30.440Z,97487.11
2019-04-10T06:50:32.117Z,97489.44
2019-04-10T06:52:34.553Z,97487.95
2019-04-10T06:54:36.376Z,97488.35
2019-04-10T06:56:37.527Z,97496.78
2019-04-10T06:58:38.788Z,97490.73
2019-04-10T07:00:41.020Z,97492.50
2019-04-10T07:02:42.345Z,97495.61
2019-04-10T07:04:49.860Z,97492.09
2019-04-10T07:06:55.950Z,97499.36
2019-04-10T07:08:50.863Z,97493.36
2019-04-10T07:10:54.642Z,97500.09
2019-04-10T07:12:51.293Z,97501.73
2019-04-10T07:14:56.498Z,97502.16
2019-04-10T07:16:54.780Z,97508.98
2019-04-10T07:18:58.316Z,97500.03
2019-04-10T07:20:59.885Z,97505.66
2019-04-10T07:22:59.582Z,97510.44
2019-04-10T07:25:00.556Z,97508.61
2019-04-10T07:27:03.509Z,97511.38
2019-04-10T07:29:04.597Z,97510.80
2019-04-10T07:31:08.195Z,97510.70
2019-04-10T07:33:07.632Z,97510.10
2019-04-10T07:35:08.950Z,97510.51
2019-04-10T07:37:12.075Z,97503.17
2019-04-10T07:39:13.053Z,97510.20
2019-04-10T07:41:19.741Z,97510.61
2019-04-10T07:43:15.491Z,97505.90
2019-04-10T07:45:17.124Z,97513.83
2019-04-10T07:47:19.618Z,97507.38
2019-04-10T07:49:21.193Z,97517.31
2019-04-10T07:51:22.275Z,97521.79
2019-04-10T07:53:24.646Z,97521.55
2019-04-10T07:55:25.432Z,97518.29
2019-04-10T07:57:27.051Z,97527.32
2019-04-10T07:59:29.232Z,97529.55
2019-04-10T08:01:31.191Z,97526.58
2019-04-10T08:03:33.099Z,97529.98
2019-04-10T08:05:33.860Z,97537.67
2019-04-10T08:07:37.740Z,97539.30
2019-04-10T08:09:37.681Z,97534.61
2019-04-10T08:11:38.852Z,97539.77
2019-04-10T08:13:40.761Z,97544.89
2019-04-10T08:15:43.139Z,97542.34
2019-04-10T08:17:44.440Z,97539.89
2019-04-10T08:19:45.504Z,97547.46
2019-04-10T08:21:47.121Z,97536.74
2019-04-10T08:23:48.783Z,97543.11
2019-04-10T08:25:51.568Z,97543.45
2019-04-10T08:27:52.260Z,97544.73
2019-04-10T08:29:54.748Z,97551.13
2019-04-10T08:31:55.991Z,97557.59
2019-04-10T08:33:57.035Z,97552.14
2019-04-10T08:35:58.991Z,97549.06
2019-04-10T08:38:01.269Z,97557.76
2019-04-10T08:40:03.081Z,97565.11
2019-04-10T08:42:03.694Z,97552.80
2019-04-10T08:44:06.404Z,97559.86
2019-04-10T08:46:06.937Z,97559.93
2019-04-10T08:48:08.553Z,97561.41
2019-04-10T08:52:24.174Z,97555.89
2019-04-10T08:56:40.702Z,97554.23
2019-04-10T08:58:41.320Z,97559.96
2019-04-10T09:00:42.887Z,97567.53
2019-04-10T09:02:44.493Z,97559.67
2019-04-10T09:04:46.839Z,97562.03
2019-04-10T09:06:47.825Z,97562.35
2019-04-10T09:08:49.433Z,97560.94
2019-04-10T09:10:51.033Z,97562.43
2019-04-10T09:12:54.533Z,97560.96
2019-04-10T09:14:54.317Z,97560.24
2019-04-10T09:16:55.921Z,97557.03
2019-04-10T09:18:57.891Z,97554.41
2019-04-10T09:20:59.431Z,97552.88
2019-04-10T09:23:18.654Z,97553.07
2019-04-10T09:25:02.848Z,97562.45
2019-04-10T09:27:04.690Z,97559.52
2019-04-10T09:29:06.728Z,97562.54
2019-04-10T09:31:07.494Z,97552.44
2019-04-10T09:33:16.886Z,97554.89
2019-04-10T09:35:12.017Z,97550.64
2019-04-10T09:37:13.479Z,97563.12
2019-04-10T09:39:14.926Z,97558.44
2019-04-10T09:41:15.812Z,97557.79
2019-04-10T09:43:17.760Z,97554.53
2019-04-10T09:45:19.977Z,97561.57
2019-04-10T09:47:20.740Z,97557.52
2019-04-10T09:49:33.841Z,97561.34
2019-04-10T09:51:24.031Z,97564.75
2019-04-10T09:53:26.638Z,97558.67
2019-04-10T09:55:27.712Z,97554.25
2019-04-10T09:57:28.960Z,97564.18
2019-04-10T09:59:35.448Z,97559.91
2019-04-10T10:01:32.217Z,97566.77
2019-04-10T10:03:34.576Z,97565.94
2019-04-10T10:05:35.492Z,97580.22
2019-04-10T10:07:37.147Z,97562.25
2019-04-10T10:09:38.748Z,97567.48
2019-04-10T10:11:40.377Z,97567.74
2019-04-10T10:13:41.972Z,97563.30
2019-04-10T10:15:43.564Z,97570.30
2019-04-10T10:17:45.160Z,97561.70
2019-04-10T10:19:46.762Z,97560.75
2019-04-10T10:21:48.395Z,97560.11
2019-04-10T10:23:50.016Z,97561.16
2019-04-10T10:25:51.641Z,97559.55
2019-04-10T10:27:54.373Z,97563.03
2019-04-10T10:29:56.031Z,97564.67
2019-04-10T10:31:56.963Z,97567.89
2019-04-10T10:33:58.378Z,97566.35
2019-04-10T10:35:59.941Z,97555.88
2019-04-10T10:38:01.559Z,97570.70
2019-04-10T10:40:03.491Z,97561.91
2019-04-10T10:42:05.477Z,97558.05
2019-04-10T10:44:06.880Z,97565.58
2019-04-10T10:46:09.232Z,97568.40
2019-04-10T10:48:09.882Z,97550.80
2019-04-10T10:50:11.538Z,97562.72
2019-04-10T10:52:13.268Z,97566.41
2019-04-10T10:54:14.780Z,97569.34
2019-04-10T10:56:16.397Z,97564.22
2019-04-10T10:58:17.993Z,97560.80
2019-04-10T11:00:19.604Z,97561.97
2019-04-10T11:02:21.313Z,97470.23
2019-04-10T11:04:23.238Z,97563.38
2019-04-10T11:06:25.201Z,97565.90
2019-04-10T11:08:26.957Z,97549.16
2019-04-10T11:10:29.769Z,97555.70
2019-04-10T11:12:30.491Z,97549.51
2019-04-10T11:14:31.897Z,97550.47
2019-04-10T11:16:33.934Z,97556.41
2019-04-10T11:18:35.335Z,97557.96
2019-04-10T11:20:37.062Z,97566.55
2019-04-10T11:22:39.721Z,97556.91
2019-04-10T11:24:41.273Z,97561.55
2019-04-10T11:26:42.623Z,97567.06
2019-04-10T11:28:43.622Z,97467.91
2019-04-10T11:30:46.965Z,97526.13
2019-04-10T11:32:48.427Z,97566.50
2019-04-10T11:34:49.300Z,97574.12
2019-04-10T11:37:11.081Z,97493.05
2019-04-10T11:38:54.907Z,97562.47
2019-04-10T11:40:57.348Z,97561.94
2019-04-10T11:42:57.477Z,97536.44
2019-04-10T11:44:57.476Z,97559.45
2019-04-10T11:46:59.216Z,97554.41
2019-04-10T11:49:01.017Z,97568.19
2019-04-10T11:51:03.202Z,97542.39
2019-04-10T11:53:04.521Z,97561.96
2019-04-10T11:55:12.728Z,97561.16
2019-04-10T11:57:07.606Z,97563.84
2019-04-10T11:59:11.671Z,97570.00
2019-04-10T12:01:10.825Z,97577.09
2019-04-10T12:03:12.875Z,97574.11
2019-04-10T12:05:19.090Z,97577.00
2019-04-10T12:07:52.923Z,97572.17
2019-04-10T12:11:20.639Z,97572.73
2019-04-10T12:13:21.990Z,97570.21
2019-04-10T12:15:23.895Z,97577.73
2019-04-10T12:17:25.550Z,97573.77
2019-04-10T12:19:26.955Z,97571.40
2019-04-10T12:21:28.019Z,97575.17
2019-04-10T12:23:29.697Z,97577.09
2019-04-10T12:25:31.361Z,97576.25
2019-04-10T12:27:33.521Z,97576.34
2019-04-10T12:29:34.998Z,97572.38
2019-04-10T12:31:36.472Z,97571.73
2019-04-10T12:33:38.089Z,97565.05
2019-04-10T12:35:40.317Z,97581.05
2019-04-10T12:37:43.299Z,97575.55
2019-04-10T12:39:43.957Z,97608.22
2019-04-10T12:41:45.868Z,97576.45
2019-04-10T12:43:47.407Z,97573.08
2019-04-10T12:45:49.013Z,97574.56
2019-04-10T12:47:50.595Z,97574.16
2019-04-10T12:49:52.249Z,97579.40
2019-04-10T12:51:54.118Z,97576.58
2019-04-10T12:53:56.162Z,97575.22
2019-04-10T12:55:57.743Z,97579.80
2019-04-10T12:58:06.715Z,97570.94
2019-04-10T13:00:04.048Z,97576.81
2019-04-10T13:02:02.869Z,97573.02
2019-04-10T13:04:05.335Z,97575.20
2019-04-10T13:06:05.738Z,97574.53
2019-04-10T13:08:19.176Z,97578.76
2019-04-10T13:10:09.119Z,97577.94
2019-04-10T13:12:11.079Z,97577.50
2019-04-10T13:14:12.581Z,97578.46
2019-04-10T13:16:14.193Z,97577.11
2019-04-10T13:18:16.319Z,97583.49
2019-04-10T13:20:17.714Z,97562.64
2019-04-10T13:22:20.056Z,97583.09
2019-04-10T13:24:21.531Z,97582.25
2019-04-10T13:26:22.400Z,97584.06
2019-04-10T13:28:23.992Z,97586.72
2019-04-10T13:30:25.738Z,97584.04
2019-04-10T13:32:27.679Z,97583.06
2019-04-10T13:34:29.160Z,97581.30
2019-04-10T13:36:31.386Z,97573.20
2019-04-10T13:38:34.436Z,97583.06
2019-04-10T13:40:35.073Z,97583.45
2019-04-10T13:42:37.020Z,97589.83
2019-04-10T13:44:38.380Z,97584.36
2019-04-10T13:46:39.133Z,97587.00
2019-04-10T13:48:41.695Z,97589.84
2019-04-10T13:50:43.175Z,97593.17
2019-04-10T13:52:44.686Z,97595.80
2019-04-10T13:54:45.841Z,97590.27
2019-04-10T13:56:47.930Z,97585.22
2019-04-10T13:58:49.132Z,97583.06
2019-04-10T14:00:52.123Z,97592.03
2019-04-10T14:02:52.405Z,97591.69
2019-04-10T14:04:53.995Z,97584.87
2019-04-10T14:06:55.692Z,97585.16
2019-04-10T14:09:12.080Z,97584.44
2019-04-10T14:10:58.971Z,97585.23
2019-04-10T14:13:00.568Z,97585.19
2019-04-10T14:15:02.196Z,97584.86
2019-04-10T14:17:05.524Z,97581.45
2019-04-10T14:19:06.374Z,97578.96
2019-04-10T14:21:12.409Z,97584.25
2019-04-10T14:23:10.730Z,97584.91
2019-04-10T14:25:27.441Z,97584.16
2019-04-10T14:27:30.088Z,97590.78
2019-04-10T14:29:30.549Z,97549.24
2019-04-10T14:31:32.263Z,97594.38
2019-04-10T14:33:33.877Z,97597.53
2019-04-10T14:35:35.613Z,97600.84
2019-04-10T14:37:37.905Z,97600.34
2019-04-10T14:39:39.588Z,97595.72
2019-04-10T14:41:40.565Z,97597.53
2019-04-10T14:43:43.821Z,97594.99
2019-04-10T14:45:43.856Z,97593.78
2019-04-10T14:47:45.583Z,97598.92
2019-04-10T14:49:47.248Z,97595.88
2019-04-10T14:51:48.806Z,97594.52
2019-04-10T14:53:51.118Z,97600.45
2019-04-10T14:55:52.149Z,97596.52
2019-04-10T14:57:54.847Z,97596.79
2019-04-10T14:59:56.035Z,97594.22
2019-04-10T15:01:57.979Z,97598.88
2019-04-10T15:03:58.709Z,97601.38
2019-04-10T15:06:01.387Z,97600.78
2019-04-10T15:08:02.009Z,97588.17
2019-04-10T15:10:03.676Z,97599.91
2019-04-10T15:12:05.272Z,97610.39
2019-04-10T15:14:07.695Z,97605.86
2019-04-10T15:16:09.127Z,97610.88
2019-04-10T15:18:10.853Z,97611.57
2019-04-10T15:20:13.269Z,97607.03
2019-04-10T15:22:25.414Z,97609.74
2019-04-10T15:24:26.026Z,97614.47
2019-04-10T15:26:28.160Z,97612.75
2019-04-10T15:28:29.715Z,97616.16
2019-04-10T15:30:31.012Z,97612.72
2019-04-10T15:32:33.637Z,97615.14
2019-04-10T15:34:35.318Z,97619.74
2019-04-10T15:36:35.985Z,97615.95
2019-04-10T15:38:37.968Z,97616.49
2019-04-10T15:40:39.240Z,97622.71
2019-04-10T15:42:40.857Z,97628.22
2019-04-10T15:44:42.799Z,97624.27
2019-04-10T15:46:44.188Z,97626.33
2019-04-10T15:48:46.082Z,97627.53
2019-04-10T15:50:47.703Z,97625.73
2019-04-10T15:52:49.333Z,97632.25
2019-04-10T15:54:53.431Z,97626.83
2019-04-10T15:56:52.470Z,97621.53
2019-04-10T15:58:54.128Z,97627.25
2019-04-10T16:00:55.721Z,97614.30
2019-04-10T16:02:57.394Z,97617.79
2019-04-10T16:04:59.410Z,97620.41
2019-04-10T16:07:00.736Z,97623.51
2019-04-10T16:09:02.996Z,97626.47
2019-04-10T16:11:07.599Z,97622.14
2019-04-10T16:13:14.524Z,97621.70
2019-04-10T16:15:15.893Z,97619.58
2019-04-10T16:17:22.898Z,97631.74
2019-04-10T16:19:36.745Z,97632.48
2019-04-10T16:21:38.199Z,97636.22
2019-04-10T16:23:40.396Z,97631.94
2019-04-10T16:25:47.433Z,97640.38
2019-04-10T16:27:50.001Z,97644.64
2019-04-10T16:29:51.055Z,97643.80
2019-04-10T16:31:53.231Z,97640.81
2019-04-10T16:33:54.627Z,97641.17
2019-04-10T16:35:56.814Z,97646.81
2019-04-10T16:37:58.140Z,97648.69
2019-04-10T16:40:04.010Z,97646.69
2019-04-10T16:42:00.661Z,97651.61
2019-04-10T16:44:02.520Z,97654.27
2019-04-10T16:46:04.904Z,97652.48
2019-04-10T16:48:06.425Z,97629.80
2019-04-10T16:50:07.199Z,97649.22
2019-04-10T16:52:09.170Z,97647.65
2019-04-10T16:54:10.554Z,97651.22
2019-04-10T16:56:12.099Z,97650.12
2019-04-10T16:58:13.816Z,97651.55
2019-04-10T17:00:17.112Z,97648.93
2019-04-10T17:02:17.907Z,97655.73
2019-04-10T17:04:18.958Z,97655.23
2019-04-10T17:06:20.430Z,97664.07
2019-04-10T17:08:22.082Z,97655.99
2019-04-10T17:10:25.988Z,97654.72
2019-04-10T17:12:25.423Z,97656.77
2019-04-10T17:14:27.168Z,97659.64
2019-04-10T17:16:29.397Z,97658.78
2019-04-10T17:18:30.852Z,97663.05
2019-04-10T17:20:32.902Z,97662.97
2019-04-10T17:22:41.830Z,97666.39
2019-04-10T17:24:35.522Z,97670.30
2019-04-10T17:26:37.179Z,97670.30
2019-04-10T17:28:38.736Z,97665.94
2019-04-10T17:30:40.333Z,97674.92
2019-04-10T17:32:42.657Z,97680.61
2019-04-10T17:34:43.623Z,97693.48
2019-04-10T17:36:45.293Z,97683.42
2019-04-10T17:38:46.877Z,97690.34
2019-04-10T17:40:51.963Z,97690.33
2019-04-10T17:42:50.342Z,97692.03
2019-04-10T17:44:51.890Z,97692.47
2019-04-10T17:46:53.499Z,97686.87
2019-04-10T17:48:55.102Z,97694.53
2019-04-10T17:50:57.458Z,97697.09
2019-04-10T17:52:58.880Z,97727.48
2019-04-10T17:55:00.966Z,97702.72
2019-04-10T17:57:02.482Z,97707.81
2019-04-10T17:59:03.348Z,97716.77
2019-04-10T18:01:04.960Z,97718.39
2019-04-10T18:03:07.607Z,97726.05
2019-04-10T18:05:08.518Z,97723.08
2019-04-10T18:07:10.107Z,97730.81
2019-04-10T18:09:11.791Z,97728.63
2019-04-10T18:11:14.167Z,97720.09
2019-04-10T18:13:14.996Z,97733.31
2019-04-10T18:15:16.734Z,97735.78
2019-04-10T18:17:18.595Z,97735.78
2019-04-10T18:19:21.200Z,97744.74
2019-04-10T18:21:22.417Z,97749.94
2019-04-10T18:23:23.291Z,97754.63
2019-04-10T18:25:25.646Z,97756.73
2019-04-10T18:27:26.633Z,97763.47
2019-04-10T18:29:28.252Z,97767.31
2019-04-10T18:31:29.895Z,97766.73
2019-04-10T18:33:31.544Z,97769.28
2019-04-10T18:35:33.685Z,97765.88
2019-04-10T18:37:35.384Z,97766.11
2019-04-10T18:39:36.707Z,97767.59
2019-04-10T18:41:38.260Z,97745.31
2019-04-10T18:43:40.350Z,97777.30
2019-04-10T18:45:53.909Z,97771.95
2019-04-10T18:47:44.046Z,97778.54
2019-04-10T18:49:45.505Z,97783.80
2019-04-10T18:51:46.560Z,97783.46
2019-04-10T18:53:49.112Z,97786.47
2019-04-10T18:55:49.973Z,97781.78
2019-04-10T18:57:51.602Z,97792.41
2019-04-10T18:59:53.856Z,97789.84
2019-04-10T19:01:59.787Z,97790.99
2019-04-10T19:04:04.234Z,97791.75
2019-04-10T19:06:04.598Z,97791.25
2019-04-10T19:08:05.567Z,97795.42
2019-04-10T19:10:08.128Z,97791.08
2019-04-10T19:12:08.889Z,97794.36
2019-04-10T19:14:10.520Z,97754.52
2019-04-10T19:16:12.979Z,97797.61
2019-04-10T19:18:13.856Z,97804.66
2019-04-10T19:20:15.727Z,97800.38
2019-04-10T19:22:18.074Z,97799.12
2019-04-10T19:24:19.692Z,97804.06
2019-04-10T19:26:21.116Z,97797.00
2019-04-10T19:28:33.427Z,97794.10
2019-04-10T19:30:35.212Z,97796.52
2019-04-10T19:32:35.645Z,97796.60
2019-04-10T19:34:37.265Z,97802.48
2019-04-10T19:36:39.816Z,97809.73
2019-04-10T19:38:41.184Z,97811.55
2019-04-10T19:40:42.212Z,97812.11
2019-04-10T19:42:43.904Z,97806.11
2019-04-10T19:44:45.597Z,97814.14
2019-04-10T19:46:48.122Z,97804.28
2019-04-10T19:48:50.752Z,97814.42
2019-04-10T19:50:50.421Z,97808.32
2019-04-10T19:52:52.840Z,97816.21
2019-04-10T19:57:08.851Z,97813.02
2019-04-10T19:59:10.318Z,97818.38
2019-04-10T20:01:11.160Z,97821.80
2019-04-10T20:03:13.244Z,97816.16
2019-04-10T20:05:14.987Z,97815.98
2019-04-10T20:07:16.602Z,97801.77
2019-04-10T20:09:17.746Z,97824.09
2019-04-10T20:11:31.357Z,97827.02
2019-04-10T20:13:21.024Z,97833.62
2019-04-10T20:15:22.611Z,97829.28
2019-04-10T20:17:24.232Z,97834.42
2019-04-10T20:19:26.626Z,97836.23
2019-04-10T20:21:27.999Z,97831.12
2019-04-10T20:23:29.941Z,97846.46
2019-04-10T20:25:30.812Z,97848.00
2019-04-10T20:27:32.447Z,97847.09
2019-04-10T20:29:35.005Z,97849.84
2019-04-10T20:31:35.666Z,97853.40
2019-04-10T20:33:37.258Z,97847.83
2019-04-10T20:35:38.867Z,97850.44
2019-04-10T20:37:40.462Z,97850.47
2019-04-10T20:39:42.264Z,97857.20
2019-04-10T20:41:51.017Z,97863.12
2019-04-10T20:43:45.452Z,97866.45
2019-04-10T20:45:47.586Z,97872.23
2019-04-10T20:47:49.771Z,97864.79
2019-04-10T20:49:51.162Z,97871.81
2019-04-10T20:51:53.633Z,97868.63
2019-04-10T20:53:54.338Z,97865.69
2019-04-10T20:55:55.945Z,97863.05
2019-04-10T20:57:57.656Z,97865.09
2019-04-10T20:59:59.526Z,97868.05
2019-04-10T21:02:01.956Z,97864.83
2019-04-10T21:04:03.136Z,97869.75
2019-04-10T21:06:04.729Z,97869.65
2019-04-10T21:08:05.950Z,97877.22
2019-04-10T21:10:08.604Z,97876.30
2019-04-10T21:12:12.830Z,97879.66
2019-04-10T21:14:12.181Z,97889.56
2019-04-10T21:16:13.393Z,97882.53
2019-04-10T21:18:15.234Z,97878.45
2019-04-10T21:20:15.983Z,97884.02
2019-04-10T21:22:17.548Z,97883.34
2019-04-10T21:24:19.182Z,97888.19
2019-04-10T21:26:21.953Z,97886.15
2019-04-10T21:28:23.028Z,97890.17
2019-04-10T21:30:30.251Z,97888.63
2019-04-10T21:32:36.400Z,97892.64
2019-04-10T21:34:39.100Z,97893.51
2019-04-10T21:36:39.654Z,97891.17
2019-04-10T21:38:41.238Z,97895.80
2019-04-10T21:40:43.324Z,97895.09
2019-04-10T21:42:45.424Z,97902.71
2019-04-10T21:44:46.204Z,97898.84
2019-04-10T21:46:48.596Z,97893.91
2019-04-10T21:48:49.512Z,97896.03
2019-04-10T21:50:51.771Z,97901.07
2019-04-10T21:52:52.901Z,97894.56
2019-04-10T21:54:57.822Z,97895.51
2019-04-10T21:56:56.150Z,97891.34
2019-04-10T21:58:57.727Z,97891.39
2019-04-10T22:01:01.867Z,97897.57
2019-04-10T22:03:03.471Z,97893.59
2019-04-10T22:05:05.985Z,97899.80
2019-04-10T22:07:25.706Z,97895.38
2019-04-10T22:09:32.188Z,97900.62
2019-04-10T22:11:34.008Z,97899.67
2019-04-10T22:13:35.796Z,97898.20
2019-04-10T22:15:37.712Z,97906.98
2019-04-10T22:17:40.398Z,97888.63
2019-04-10T22:19:41.011Z,97905.53
2019-04-10T22:21:42.598Z,97903.55
2019-04-10T22:23:44.755Z,97904.48
2019-04-10T22:25:45.962Z,97902.84
2019-04-10T22:27:47.761Z,97904.14
2019-04-10T22:29:49.111Z,97901.22
2019-04-10T22:31:51.339Z,97900.00
2019-04-10T22:33:52.370Z,97881.15
2019-04-10T22:35:53.946Z,97905.58
2019-04-10T22:37:56.655Z,97901.31
2019-04-10T22:39:57.176Z,97903.35
2019-04-10T22:41:58.990Z,97911.38
2019-04-10T22:44:01.192Z,97908.80
2019-04-10T22:46:02.596Z,97907.12
2019-04-10T22:48:04.183Z,97910.17
2019-04-10T22:50:05.380Z,97912.67
2019-04-10T22:52:06.963Z,97908.82
2019-04-10T22:54:08.590Z,97910.09
2019-04-10T22:56:10.889Z,97907.11
2019-04-10T22:58:12.817Z,97907.09
2019-04-10T23:00:13.854Z,97908.77
2019-04-10T23:02:16.486Z,97906.70
2019-04-10T23:04:17.750Z,97909.31
2019-04-10T23:06:18.473Z,97910.17
2019-04-10T23:08:20.096Z,97908.88
2019-04-10T23:10:21.698Z,97904.99
2019-04-10T23:12:24.404Z,97908.82
2019-04-10T23:14:24.946Z,97912.25
2019-04-10T23:16:26.531Z,97911.02
2019-04-10T23:18:28.135Z,97909.80
2019-04-10T23:20:30.021Z,97908.55
2019-04-10T23:22:31.424Z,97908.63
2019-04-10T23:24:33.811Z,97907.84
2019-04-10T23:26:35.390Z,97908.62
2019-04-10T23:28:36.332Z,97915.42
2019-04-10T23:30:39.127Z,97907.25
2019-04-10T23:32:39.648Z,97908.14
2019-04-10T23:34:41.255Z,97916.66
2019-04-10T23:36:42.864Z,97915.02
2019-04-10T23:38:44.448Z,97907.41
2019-04-10T23:40:47.210Z,97910.46
2019-04-10T23:42:48.295Z,97912.61
2019-04-10T23:44:49.361Z,97913.02
2019-04-10T23:46:51.697Z,97911.77
2019-04-10T23:48:53.001Z,97917.31
2019-04-10T23:50:54.528Z,97913.03
2019-04-10T23:52:56.194Z,97905.00
2019-04-10T23:54:57.655Z,97889.17
2019-04-10T23:56:59.267Z,97907.63
2019-04-10T23:59:00.875Z,97906.35
